Time;durP1;ratioP1;P1;durP2;ratioP2;P2;SDS_P1;SDS_P2;PMS_P1;PMS_P2;Temp;Humidity;BMP_temperature;BMP_pressure;BME280_temperature;BME280_humidity;BME280_pressure;Samples;Min_cycle;Max_cycle;Signal;HPM_P1;HPM_P2
2022/12/16 00:01:34;;;;;;;83.87;39.10;;;;;;;-5.43;83.35;100161.67;1698008;84;21521;-76
2022/12/16 00:04:01;;;;;;;91.20;39.77;;;;;;;-5.43;83.40;100162.56;1698680;84;21214;-75
2022/12/16 00:06:32;;;;;;;86.77;40.13;;;;;;;-5.40;83.59;100163.91;1698750;84;21069;-74
2022/12/16 00:09:00;;;;;;;94.60;41.47;;;;;;;-5.38;83.67;100154.98;1697479;84;21468;-75
2022/12/16 00:11:30;;;;;;;82.10;39.60;;;;;;;-5.33;83.81;100157.66;1697992;84;21009;-75
2022/12/16 00:13:57;;;;;;;85.00;39.40;;;;;;;-5.31;83.85;100154.31;1699135;84;21017;-75
2022/12/16 00:16:24;;;;;;;83.80;40.93;;;;;;;-5.29;83.83;100149.22;1698747;84;21138;-75
2022/12/16 00:18:52;;;;;;;79.30;38.40;;;;;;;-5.25;83.91;100155.73;1699108;84;21070;-75
2022/12/16 00:21:19;;;;;;;77.63;39.23;;;;;;;-5.22;84.04;100146.84;1698732;84;21070;-75
2022/12/16 00:23:47;;;;;;;87.87;41.27;;;;;;;-5.19;83.98;100139.67;1699080;84;21057;-75
2022/12/16 00:26:14;;;;;;;88.50;40.97;;;;;;;-5.17;83.93;100138.02;1698830;84;21002;-75
2022/12/16 00:28:42;;;;;;;86.60;43.13;;;;;;;-5.16;83.92;100133.34;1698396;84;21121;-75
2022/12/16 00:31:10;;;;;;;85.03;41.03;;;;;;;-5.16;83.92;100138.03;1698242;84;21029;-75
2022/12/16 00:33:37;;;;;;;85.57;41.33;;;;;;;-5.14;84.01;100137.23;1699016;84;21025;-75
2022/12/16 00:36:05;;;;;;;81.40;37.93;;;;;;;-5.13;84.06;100141.50;1698811;84;21048;-75
2022/12/16 00:38:32;;;;;;;85.90;41.00;;;;;;;-5.10;84.16;100133.89;1697827;84;21025;-75
2022/12/16 00:41:01;;;;;;;84.67;41.03;;;;;;;-5.10;84.11;100145.39;1698991;84;21929;-75
2022/12/16 00:43:28;;;;;;;80.43;38.03;;;;;;;-5.09;84.17;100139.05;1698559;84;21001;-75
2022/12/16 00:45:55;;;;;;;78.23;37.43;;;;;;;-5.05;84.39;100130.61;1698711;84;21029;-76
2022/12/16 00:48:23;;;;;;;83.83;41.27;;;;;;;-5.03;84.31;100126.82;1699007;84;21069;-75
2022/12/16 00:50:53;;;;;;;82.07;40.00;;;;;;;-5.03;84.31;100125.55;1698707;84;21037;-75
2022/12/16 00:53:21;;;;;;;82.00;41.50;;;;;;;-5.01;84.31;100120.06;1698891;84;21078;-75
2022/12/16 00:55:48;;;;;;;91.37;40.60;;;;;;;-5.02;84.20;100123.00;1697759;84;21045;-75
2022/12/16 00:58:16;;;;;;;83.70;40.00;;;;;;;-5.03;84.23;100109.78;1691521;84;21033;-76
2022/12/16 01:00:42;;;;;;;83.27;40.00;;;;;;;-5.04;84.27;100114.89;1687712;85;21038;-75
2022/12/16 01:03:10;;;;;;;85.83;41.30;;;;;;;-5.05;84.35;100114.00;1688021;84;21501;-75
2022/12/16 01:05:38;;;;;;;90.67;42.57;;;;;;;-5.03;84.44;100122.56;1687690;84;21135;-75
2022/12/16 01:08:05;;;;;;;90.30;42.27;;;;;;;-4.99;84.59;100119.66;1687941;85;21018;-75
2022/12/16 01:10:32;;;;;;;92.70;44.70;;;;;;;-4.97;84.60;100118.00;1687514;84;21066;-75
2022/12/16 01:12:59;;;;;;;87.03;41.47;;;;;;;-4.94;84.64;100118.92;1687306;84;21073;-75
2022/12/16 01:15:26;;;;;;;91.43;41.00;;;;;;;-4.94;84.64;100116.36;1687788;84;21014;-75
2022/12/16 01:17:53;;;;;;;85.63;42.97;;;;;;;-4.91;84.71;100116.84;1688110;85;21796;-77
2022/12/16 01:20:21;;;;;;;85.73;41.00;;;;;;;-4.91;84.62;100108.31;1687635;84;21018;-75
2022/12/16 01:22:47;;;;;;;81.60;41.23;;;;;;;-4.90;84.68;100114.75;1688082;84;21054;-74
2022/12/16 01:25:16;;;;;;;89.10;44.07;;;;;;;-4.88;84.67;100113.06;1687739;85;21500;-75
2022/12/16 01:27:43;;;;;;;89.90;43.17;;;;;;;-4.90;84.57;100110.92;1686815;85;21037;-75
2022/12/16 01:30:11;;;;;;;98.43;44.73;;;;;;;-4.91;84.56;100112.16;1686770;84;21133;-75
2022/12/16 01:32:38;;;;;;;98.77;45.60;;;;;;;-4.91;84.56;100113.43;1687840;85;21066;-75
2022/12/16 01:35:06;;;;;;;95.23;46.07;;;;;;;-4.94;84.61;100113.80;1687786;85;20979;-75
2022/12/16 01:37:33;;;;;;;96.50;46.77;;;;;;;-4.91;84.75;100105.76;1687801;84;21082;-75
2022/12/16 01:40:01;;;;;;;102.23;48.23;;;;;;;-4.91;84.70;100098.09;1686135;84;21504;-75
2022/12/16 01:42:30;;;;;;;102.10;46.63;;;;;;;-4.90;84.77;100096.86;1686416;85;21166;-74
2022/12/16 01:44:59;;;;;;;100.83;48.10;;;;;;;-4.90;84.72;100092.14;1686960;85;20919;-75
2022/12/16 01:47:31;;;;;;;101.83;50.17;;;;;;;-4.90;84.69;100095.97;1663475;85;21045;-75
2022/12/16 01:50:07;;;;;;;110.30;50.37;;;;;;;-4.92;84.66;100102.34;1687352;85;21424;-76
2022/12/16 01:52:42;;;;;;;101.03;49.00;;;;;;;-4.92;84.76;100100.21;1687588;84;21067;-75
2022/12/16 01:55:23;;;;;;;111.40;49.43;;;;;;;-4.91;84.83;100105.34;1687951;84;21117;-75
2022/12/16 01:58:05;;;;;;;110.07;51.07;;;;;;;-4.87;84.96;100101.17;1686459;84;21061;-76
2022/12/16 02:00:33;;;;;;;101.10;50.27;;;;;;;-4.86;84.91;100101.19;1687217;84;21018;-75
2022/12/16 02:03:02;;;;;;;108.43;50.73;;;;;;;-4.88;84.83;100099.01;1687627;84;21527;-76
2022/12/16 02:05:30;;;;;;;114.10;52.63;;;;;;;-4.86;84.93;100101.61;1687925;85;21029;-76
2022/12/16 02:08:11;;;;;;;105.77;50.43;;;;;;;-4.84;85.01;100100.81;1687784;85;21179;-75
2022/12/16 02:10:46;;;;;;;114.83;53.90;;;;;;;-4.86;84.96;100098.63;1687982;84;20975;-76
2022/12/16 02:13:54;;;;;;;105.53;49.73;;;;;;;-4.83;85.00;100101.25;1687191;85;21519;-75
2022/12/16 02:16:38;;;;;;;111.87;51.67;;;;;;;-4.81;85.08;100101.30;1681490;85;21539;-77
2022/12/16 02:19:16;;;;;;;113.73;51.10;;;;;;;-4.83;84.99;100101.25;1687789;85;21025;-77
2022/12/16 02:22:15;;;;;;;113.67;50.80;;;;;;;-4.83;85.07;100103.80;1687983;85;22085;-75
2022/12/16 02:25:09;;;;;;;115.23;53.37;;;;;;;-4.83;85.03;100099.11;1687447;84;21364;-76
2022/12/16 02:28:12;;;;;;;112.23;53.23;;;;;;;-4.85;85.07;100086.31;1686993;84;20988;-75
2022/12/16 02:31:01;;;;;;;123.13;55.90;;;;;;;-4.85;85.16;100086.31;1686572;84;21058;-76
2022/12/16 02:33:58;;;;;;;121.40;53.83;;;;;;;-4.84;85.27;100077.80;1686997;84;21148;-76
2022/12/16 02:36:43;;;;;;;118.07;55.83;;;;;;;-4.85;85.38;100073.53;1633598;87;21150;-75
2022/12/16 02:39:39;;;;;;;119.03;54.27;;;;;;;-4.83;85.50;100068.44;1670652;84;21524;-76
2022/12/16 02:42:24;;;;;;;118.50;54.73;;;;;;;-4.80;85.59;100066.79;1613582;87;21415;-77
2022/12/16 02:45:13;;;;;;;118.97;56.33;;;;;;;-4.78;85.55;100060.02;1612375;87;21549;-76
2022/12/16 02:47:40;;;;;;;119.07;56.47;;;;;;;-4.76;85.59;100061.34;1612577;87;21036;-75
2022/12/16 02:50:24;;;;;;;120.67;53.93;;;;;;;-4.76;85.60;100056.23;1612656;87;21179;-76
2022/12/16 02:52:54;;;;;;;118.27;53.43;;;;;;;-4.73;85.62;100055.00;1611626;87;21067;-76
2022/12/16 02:55:27;;;;;;;120.30;55.03;;;;;;;-4.72;85.71;100047.34;1594485;89;22356;-76
2022/12/16 02:58:17;;;;;;;128.00;54.73;;;;;;;-4.71;85.63;100043.13;1584612;89;21108;-76
2022/12/16 03:01:23;;;;;;;122.60;55.38;;;;;;;-4.72;85.67;100048.62;1600358;88;21073;-76
2022/12/16 03:04:04;;;;;;;113.00;54.30;;;;;;;-4.69;85.68;100046.97;1600523;88;21159;-76
2022/12/16 03:06:35;;;;;;;113.40;53.67;;;;;;;-4.67;85.78;100056.81;1600137;88;21105;-76
2022/12/16 03:09:06;;;;;;;118.42;53.98;;;;;;;-4.64;85.87;100060.70;1600855;88;21077;-76
2022/12/16 03:11:35;;;;;;;111.87;53.30;;;;;;;-4.62;85.97;100059.91;1600537;88;21559;-76
2022/12/16 03:14:03;;;;;;;119.80;55.17;;;;;;;-4.56;86.02;100056.59;1600456;88;21629;-76
2022/12/16 03:16:33;;;;;;;111.60;53.17;;;;;;;-4.55;85.93;100050.21;1600419;88;21228;-76
2022/12/16 03:19:05;;;;;;;106.67;51.80;;;;;;;-4.55;85.83;100051.91;1635008;85;21061;-75
2022/12/16 03:21:50;;;;;;;112.83;52.37;;;;;;;-4.53;85.82;100054.09;1683627;85;21053;-76
2022/12/16 03:24:17;;;;;;;114.27;51.87;;;;;;;-4.53;85.80;100047.70;1669804;85;21488;-76
2022/12/16 03:27:11;;;;;;;116.97;53.63;;;;;;;-4.52;85.88;100034.06;1684667;85;21016;-76
2022/12/16 03:30:03;;;;;;;120.67;53.90;;;;;;;-4.48;85.96;100037.14;1684926;85;21145;-75
2022/12/16 03:33:02;;;;;;;112.47;51.20;;;;;;;-4.51;85.78;100030.69;1684619;85;21021;-75
2022/12/16 03:35:41;;;;;;;113.17;53.80;;;;;;;-4.47;86.00;100029.04;1684761;85;21050;-75
2022/12/16 03:38:10;;;;;;;122.47;56.40;;;;;;;-4.45;85.96;100030.80;1684741;85;21010;-75
2022/12/16 03:40:41;;;;;;;109.77;52.40;;;;;;;-4.45;85.87;100031.22;1683908;85;21037;-75
2022/12/16 03:43:13;;;;;;;111.35;52.78;;;;;;;-4.46;85.87;100039.70;1684558;85;21214;-75
2022/12/16 03:45:44;;;;;;;115.27;53.47;;;;;;;-4.46;85.97;100026.91;1684568;85;21028;-75
2022/12/16 03:48:14;;;;;;;113.70;52.03;;;;;;;-4.45;85.94;100027.37;1683769;85;21033;-75
2022/12/16 03:50:41;;;;;;;115.20;53.90;;;;;;;-4.45;86.00;100024.82;1684716;85;21034;-75
2022/12/16 03:53:09;;;;;;;119.27;54.63;;;;;;;-4.44;86.07;100029.95;1684801;85;21013;-75
2022/12/16 03:55:36;;;;;;;110.53;53.43;;;;;;;-4.42;86.17;100031.27;1684761;85;22112;-75
2022/12/16 03:58:03;;;;;;;106.77;51.37;;;;;;;-4.40;86.29;100027.91;1684522;85;21028;-75
2022/12/16 04:00:30;;;;;;;115.40;52.63;;;;;;;-4.35;86.47;100021.17;1684508;85;21092;-75
2022/12/16 04:02:57;;;;;;;119.43;53.83;;;;;;;-4.29;86.40;100029.37;1684682;85;21016;-75
2022/12/16 04:05:25;;;;;;;110.60;53.10;;;;;;;-4.28;86.28;100033.64;1684654;85;21033;-75
2022/12/16 04:07:52;;;;;;;114.30;52.07;;;;;;;-4.28;86.32;100030.66;1684633;85;21147;-75
2022/12/16 04:24:18;;;;;;;115.67;54.17;;;;;;;-4.27;86.32;100033.68;1684642;85;20985;-76
2022/12/16 04:29:27;;;;;;;118.93;55.03;;;;;;;-4.16;86.50;100041.51;1684867;85;21088;-74
2022/12/16 04:31:55;;;;;;;115.07;55.00;;;;;;;-4.14;86.49;100038.56;1684947;85;21040;-75
2022/12/16 04:34:27;;;;;;;114.90;52.83;;;;;;;-4.12;86.50;100033.48;1684761;85;21114;-76
